sensor_id;sensor_type;location;lat;lon;timestamp;temperature;humidity
21565;DHT22;10943;48.738;9.320;2022-12-17T00:02:24;0.20;99.90
21565;DHT22;10943;48.738;9.320;2022-12-17T00:05:11;0.10;99.90
21565;DHT22;10943;48.738;9.320;2022-12-17T00:07:58;0.00;99.90
21565;DHT22;10943;48.738;9.320;2022-12-17T00:10:45;-0.10;99.90
21565;DHT22;10943;48.738;9.320;2022-12-17T00:13:31;0.00;99.90
21565;DHT22;10943;48.738;9.320;2022-12-17T00:16:20;0.10;99.90
21565;DHT22;10943;48.738;9.320;2022-12-17T00:19:07;0.30;99.90
21565;DHT22;10943;48.738;9.320;2022-12-17T00:21:53;0.10;99.90
21565;DHT22;10943;48.738;9.320;2022-12-17T00:24:39;-0.10;99.90
21565;DHT22;10943;48.738;9.320;2022-12-17T00:27:25;-0.30;99.90
21565;DHT22;10943;48.738;9.320;2022-12-17T00:30:12;-0.40;99.90
21565;DHT22;10943;48.738;9.320;2022-12-17T00:33:01;-0.40;99.90
21565;DHT22;10943;48.738;9.320;2022-12-17T00:35:53;-0.60;99.90
21565;DHT22;10943;48.738;9.320;2022-12-17T00:38:45;-0.30;99.90
21565;DHT22;10943;48.738;9.320;2022-12-17T00:41:31;-0.10;99.90
21565;DHT22;10943;48.738;9.320;2022-12-17T00:44:17;-0.20;99.90
21565;DHT22;10943;48.738;9.320;2022-12-17T00:47:03;-0.20;99.90
21565;DHT22;10943;48.738;9.320;2022-12-17T00:49:49;-0.10;99.90
21565;DHT22;10943;48.738;9.320;2022-12-17T00:52:37;-0.20;99.90
21565;DHT22;10943;48.738;9.320;2022-12-17T00:55:23;-0.40;99.90
21565;DHT22;10943;48.738;9.320;2022-12-17T00:58:11;-0.40;99.90
21565;DHT22;10943;48.738;9.320;2022-12-17T01:00:58;-0.50;99.90
21565;DHT22;10943;48.738;9.320;2022-12-17T01:03:45;-0.50;99.90
21565;DHT22;10943;48.738;9.320;2022-12-17T01:06:32;-0.30;99.90
21565;DHT22;10943;48.738;9.320;2022-12-17T01:09:19;-0.30;99.90
21565;DHT22;10943;48.738;9.320;2022-12-17T01:12:07;-0.30;99.90
21565;DHT22;10943;48.738;9.320;2022-12-17T01:14:53;-0.50;99.90
21565;DHT22;10943;48.738;9.320;2022-12-17T01:17:40;-0.60;99.90
21565;DHT22;10943;48.738;9.320;2022-12-17T01:20:26;-0.90;99.90
21565;DHT22;10943;48.738;9.320;2022-12-17T01:23:14;-0.90;99.90
21565;DHT22;10943;48.738;9.320;2022-12-17T01:26:04;-1.00;99.90
21565;DHT22;10943;48.738;9.320;2022-12-17T01:28:50;-0.90;99.90
21565;DHT22;10943;48.738;9.320;2022-12-17T01:31:39;-0.90;99.90
21565;DHT22;10943;48.738;9.320;2022-12-17T01:34:26;-0.90;99.90
21565;DHT22;10943;48.738;9.320;2022-12-17T01:37:12;-1.10;99.90
21565;DHT22;10943;48.738;9.320;2022-12-17T01:39:58;-1.10;99.90
21565;DHT22;10943;48.738;9.320;2022-12-17T01:42:45;-1.00;99.90
21565;DHT22;10943;48.738;9.320;2022-12-17T01:45:45;-1.10;99.90
21565;DHT22;10943;48.738;9.320;2022-12-17T01:48:40;-1.00;99.90
21565;DHT22;10943;48.738;9.320;2022-12-17T01:51:31;-1.00;99.90
21565;DHT22;10943;48.738;9.320;2022-12-17T01:54:19;-0.90;99.90
21565;DHT22;10943;48.738;9.320;2022-12-17T01:57:06;-0.90;99.90
21565;DHT22;10943;48.738;9.320;2022-12-17T02:00:00;-1.20;99.90
21565;DHT22;10943;48.738;9.320;2022-12-17T02:02:51;-1.30;99.90
21565;DHT22;10943;48.738;9.320;2022-12-17T02:19:29;-0.90;99.90
21565;DHT22;10943;48.738;9.320;2022-12-17T02:22:57;-0.90;99.90
21565;DHT22;10943;48.738;9.320;2022-12-17T02:29:31;-0.60;99.90
21565;DHT22;10943;48.738;9.320;2022-12-17T02:32:28;-0.50;99.90
21565;DHT22;10943;48.738;9.320;2022-12-17T02:35:24;-0.50;99.90
21565;DHT22;10943;48.738;9.320;2022-12-17T02:38:27;-0.50;99.90
21565;DHT22;10943;48.738;9.320;2022-12-17T02:41:26;-0.50;99.90
21565;DHT22;10943;48.738;9.320;2022-12-17T02:44:18;-0.30;99.90
21565;DHT22;10943;48.738;9.320;2022-12-17T02:47:08;-0.20;99.90
21565;DHT22;10943;48.738;9.320;2022-12-17T02:49:56;-0.30;99.90
21565;DHT22;10943;48.738;9.320;2022-12-17T02:52:47;-0.20;99.90
21565;DHT22;10943;48.738;9.320;2022-12-17T02:55:35;-0.30;99.90
21565;DHT22;10943;48.738;9.320;2022-12-17T02:58:21;-0.20;99.90
21565;DHT22;10943;48.738;9.320;2022-12-17T03:01:08;0.00;99.90
21565;DHT22;10943;48.738;9.320;2022-12-17T03:03:54;0.00;99.90
21565;DHT22;10943;48.738;9.320;2022-12-17T03:06:41;0.00;99.90
21565;DHT22;10943;48.738;9.320;2022-12-17T03:09:28;-0.20;99.90
21565;DHT22;10943;48.738;9.320;2022-12-17T03:12:14;-0.30;99.90
21565;DHT22;10943;48.738;9.320;2022-12-17T03:15:00;-0.10;99.90
21565;DHT22;10943;48.738;9.320;2022-12-17T03:17:47;-0.20;99.90
21565;DHT22;10943;48.738;9.320;2022-12-17T03:20:33;-0.20;99.90
21565;DHT22;10943;48.738;9.320;2022-12-17T03:23:19;-0.30;99.90
21565;DHT22;10943;48.738;9.320;2022-12-17T03:26:06;-0.10;99.90
21565;DHT22;10943;48.738;9.320;2022-12-17T03:28:52;0.00;99.90
21565;DHT22;10943;48.738;9.320;2022-12-17T03:31:38;0.20;99.90
21565;DHT22;10943;48.738;9.320;2022-12-17T03:34:24;0.30;99.90
21565;DHT22;10943;48.738;9.320;2022-12-17T03:37:10;0.60;99.90
21565;DHT22;10943;48.738;9.320;2022-12-17T03:39:56;0.40;99.90
21565;DHT22;10943;48.738;9.320;2022-12-17T03:42:42;0.40;99.90
21565;DHT22;10943;48.738;9.320;2022-12-17T03:45:28;0.40;99.90
21565;DHT22;10943;48.738;9.320;2022-12-17T03:48:14;0.50;99.90
21565;DHT22;10943;48.738;9.320;2022-12-17T03:51:01;0.50;99.90
21565;DHT22;10943;48.738;9.320;2022-12-17T03:53:47;0.60;99.90
21565;DHT22;10943;48.738;9.320;2022-12-17T03:56:36;0.60;99.90
21565;DHT22;10943;48.738;9.320;2022-12-17T03:59:23;0.70;99.90
21565;DHT22;10943;48.738;9.320;2022-12-17T04:02:09;0.80;99.90
21565;DHT22;10943;48.738;9.320;2022-12-17T04:04:55;0.90;99.90
21565;DHT22;10943;48.738;9.320;2022-12-17T04:07:46;0.90;99.90
21565;DHT22;10943;48.738;9.320;2022-12-17T04:10:33;0.90;99.90
21565;DHT22;10943;48.738;9.320;2022-12-17T04:13:20;0.90;99.90
21565;DHT22;10943;48.738;9.320;2022-12-17T04:16:08;0.70;99.90
21565;DHT22;10943;48.738;9.320;2022-12-17T04:18:54;0.80;99.90
21565;DHT22;10943;48.738;9.320;2022-12-17T04:21:40;0.90;99.90
21565;DHT22;10943;48.738;9.320;2022-12-17T04:24:26;0.90;99.90
21565;DHT22;10943;48.738;9.320;2022-12-17T04:27:12;0.90;99.90
21565;DHT22;10943;48.738;9.320;2022-12-17T04:29:58;1.00;99.90
21565;DHT22;10943;48.738;9.320;2022-12-17T04:32:44;1.10;99.90
21565;DHT22;10943;48.738;9.320;2022-12-17T04:35:32;1.00;99.90
21565;DHT22;10943;48.738;9.320;2022-12-17T04:38:18;1.00;99.90
21565;DHT22;10943;48.738;9.320;2022-12-17T04:41:04;1.10;99.90
21565;DHT22;10943;48.738;9.320;2022-12-17T04:43:50;1.20;99.90
21565;DHT22;10943;48.738;9.320;2022-12-17T04:46:37;1.20;99.90
21565;DHT22;10943;48.738;9.320;2022-12-17T04:49:23;1.30;99.90
21565;DHT22;10943;48.738;9.320;2022-12-17T04:52:10;1.20;99.90
21565;DHT22;10943;48.738;9.320;2022-12-17T04:54:57;1.30;99.90
21565;DHT22;10943;48.738;9.320;2022-12-17T04:57:43;1.40;99.90
21565;DHT22;10943;48.738;9.320;2022-12-17T05:00:29;1.30;99.90
21565;DHT22;10943;48.738;9.320;2022-12-17T05:03:18;1.20;99.90
21565;DHT22;10943;48.738;9.320;2022-12-17T05:06:05;1.30;99.90
21565;DHT22;10943;48.738;9.320;2022-12-17T05:08:52;1.30;99.90
21565;DHT22;10943;48.738;9.320;2022-12-17T05:12:04;1.40;99.90
21565;DHT22;10943;48.738;9.320;2022-12-17T05:14:50;1.30;99.90
21565;DHT22;10943;48.738;9.320;2022-12-17T05:17:37;1.10;99.90
21565;DHT22;10943;48.738;9.320;2022-12-17T05:20:23;1.10;99.90
21565;DHT22;10943;48.738;9.320;2022-12-17T05:23:09;1.10;99.90
21565;DHT22;10943;48.738;9.320;2022-12-17T05:26:10;1.20;99.90
21565;DHT22;10943;48.738;9.320;2022-12-17T05:29:02;1.30;99.90
21565;DHT22;10943;48.738;9.320;2022-12-17T05:31:49;1.10;99.90
21565;DHT22;10943;48.738;9.320;2022-12-17T05:34:35;0.90;99.90
21565;DHT22;10943;48.738;9.320;2022-12-17T05:37:28;0.90;99.90
21565;DHT22;10943;48.738;9.320;2022-12-17T05:40:14;0.90;99.90
21565;DHT22;10943;48.738;9.320;2022-12-17T05:43:02;0.90;99.90
21565;DHT22;10943;48.738;9.320;2022-12-17T05:45:52;1.00;99.90
21565;DHT22;10943;48.738;9.320;2022-12-17T05:48:38;1.10;99.90
21565;DHT22;10943;48.738;9.320;2022-12-17T05:51:24;1.00;99.90
21565;DHT22;10943;48.738;9.320;2022-12-17T05:54:10;1.20;99.90
21565;DHT22;10943;48.738;9.320;2022-12-17T05:56:56;1.10;99.90
21565;DHT22;10943;48.738;9.320;2022-12-17T05:59:43;1.10;99.90
21565;DHT22;10943;48.738;9.320;2022-12-17T06:02:38;1.10;99.90
21565;DHT22;10943;48.738;9.320;2022-12-17T06:05:27;0.90;99.90
21565;DHT22;10943;48.738;9.320;2022-12-17T06:08:14;1.00;99.90
21565;DHT22;10943;48.738;9.320;2022-12-17T06:11:00;1.00;99.90
21565;DHT22;10943;48.738;9.320;2022-12-17T06:14:12;1.00;99.90
21565;DHT22;10943;48.738;9.320;2022-12-17T06:16:58;1.10;99.90
21565;DHT22;10943;48.738;9.320;2022-12-17T06:19:45;1.10;99.90
21565;DHT22;10943;48.738;9.320;2022-12-17T06:22:31;1.10;99.90
21565;DHT22;10943;48.738;9.320;2022-12-17T06:25:17;1.00;99.90
21565;DHT22;10943;48.738;9.320;2022-12-17T06:28:03;0.80;99.90
21565;DHT22;10943;48.738;9.320;2022-12-17T06:30:53;0.50;99.90
21565;DHT22;10943;48.738;9.320;2022-12-17T06:33:40;0.50;99.90
21565;DHT22;10943;48.738;9.320;2022-12-17T06:36:26;0.60;99.90
21565;DHT22;10943;48.738;9.320;2022-12-17T06:39:13;0.60;99.90
21565;DHT22;10943;48.738;9.320;2022-12-17T06:41:59;0.70;99.90
21565;DHT22;10943;48.738;9.320;2022-12-17T06:44:46;0.60;99.90
21565;DHT22;10943;48.738;9.320;2022-12-17T06:47:32;0.60;99.90
21565;DHT22;10943;48.738;9.320;2022-12-17T06:50:19;0.70;99.90
21565;DHT22;10943;48.738;9.320;2022-12-17T06:53:06;0.80;99.90
21565;DHT22;10943;48.738;9.320;2022-12-17T06:55:56;0.90;99.90
21565;DHT22;10943;48.738;9.320;2022-12-17T06:58:44;0.90;99.90
21565;DHT22;10943;48.738;9.320;2022-12-17T07:01:30;0.80;99.90
21565;DHT22;10943;48.738;9.320;2022-12-17T07:04:17;0.60;99.90
21565;DHT22;10943;48.738;9.320;2022-12-17T07:07:03;0.70;99.90
21565;DHT22;10943;48.738;9.320;2022-12-17T07:09:52;0.80;99.90
21565;DHT22;10943;48.738;9.320;2022-12-17T07:12:40;1.00;99.90
21565;DHT22;10943;48.738;9.320;2022-12-17T07:15:26;0.90;99.90
21565;DHT22;10943;48.738;9.320;2022-12-17T07:18:15;1.00;99.90
21565;DHT22;10943;48.738;9.320;2022-12-17T07:21:01;1.00;99.90
21565;DHT22;10943;48.738;9.320;2022-12-17T07:23:51;1.10;99.90
21565;DHT22;10943;48.738;9.320;2022-12-17T07:26:37;1.10;99.90
21565;DHT22;10943;48.738;9.320;2022-12-17T07:29:23;1.10;99.90
21565;DHT22;10943;48.738;9.320;2022-12-17T07:32:10;1.10;99.90
21565;DHT22;10943;48.738;9.320;2022-12-17T07:34:57;0.80;99.90
21565;DHT22;10943;48.738;9.320;2022-12-17T07:37:43;0.50;99.90
21565;DHT22;10943;48.738;9.320;2022-12-17T07:40:49;0.70;99.90
21565;DHT22;10943;48.738;9.320;2022-12-17T07:43:35;0.80;99.90
21565;DHT22;10943;48.738;9.320;2022-12-17T07:46:21;1.10;99.90
21565;DHT22;10943;48.738;9.320;2022-12-17T07:49:10;1.20;99.90
21565;DHT22;10943;48.738;9.320;2022-12-17T07:51:57;1.30;99.90
21565;DHT22;10943;48.738;9.320;2022-12-17T07:54:43;1.30;99.90
21565;DHT22;10943;48.738;9.320;2022-12-17T07:57:33;1.30;99.90
21565;DHT22;10943;48.738;9.320;2022-12-17T08:00:20;1.50;99.90
21565;DHT22;10943;48.738;9.320;2022-12-17T08:03:11;1.50;99.90
21565;DHT22;10943;48.738;9.320;2022-12-17T08:05:58;1.40;99.90
21565;DHT22;10943;48.738;9.320;2022-12-17T08:08:45;1.50;99.90
21565;DHT22;10943;48.738;9.320;2022-12-17T08:11:31;1.40;99.90
21565;DHT22;10943;48.738;9.320;2022-12-17T08:14:20;1.30;99.90
21565;DHT22;10943;48.738;9.320;2022-12-17T08:17:06;1.50;99.90
21565;DHT22;10943;48.738;9.320;2022-12-17T08:19:59;1.60;99.90
21565;DHT22;10943;48.738;9.320;2022-12-17T08:22:45;1.80;99.90
21565;DHT22;10943;48.738;9.320;2022-12-17T08:25:31;1.80;99.90
21565;DHT22;10943;48.738;9.320;2022-12-17T08:28:17;1.70;99.90
21565;DHT22;10943;48.738;9.320;2022-12-17T08:31:23;1.80;99.90
21565;DHT22;10943;48.738;9.320;2022-12-17T08:34:09;1.80;99.90
21565;DHT22;10943;48.738;9.320;2022-12-17T08:36:55;1.60;99.90
21565;DHT22;10943;48.738;9.320;2022-12-17T08:39:42;1.70;99.90
21565;DHT22;10943;48.738;9.320;2022-12-17T08:42:28;1.70;99.90
21565;DHT22;10943;48.738;9.320;2022-12-17T08:45:14;1.60;99.90
21565;DHT22;10943;48.738;9.320;2022-12-17T08:48:04;1.80;99.90
21565;DHT22;10943;48.738;9.320;2022-12-17T08:50:52;1.90;99.90
21565;DHT22;10943;48.738;9.320;2022-12-17T08:53:41;2.20;99.90
21565;DHT22;10943;48.738;9.320;2022-12-17T08:56:27;2.20;99.90
21565;DHT22;10943;48.738;9.320;2022-12-17T08:59:16;2.20;99.90
21565;DHT22;10943;48.738;9.320;2022-12-17T09:02:09;2.20;99.90
21565;DHT22;10943;48.738;9.320;2022-12-17T09:04:55;2.20;99.90
21565;DHT22;10943;48.738;9.320;2022-12-17T09:07:46;2.10;99.90
21565;DHT22;10943;48.738;9.320;2022-12-17T09:10:33;2.00;99.90
21565;DHT22;10943;48.738;9.320;2022-12-17T09:13:19;2.10;99.90
21565;DHT22;10943;48.738;9.320;2022-12-17T09:16:06;2.30;99.90
21565;DHT22;10943;48.738;9.320;2022-12-17T09:18:52;2.30;99.90
21565;DHT22;10943;48.738;9.320;2022-12-17T09:21:38;2.20;99.90
21565;DHT22;10943;48.738;9.320;2022-12-17T09:24:24;2.30;99.90
21565;DHT22;10943;48.738;9.320;2022-12-17T09:27:10;2.20;99.90
21565;DHT22;10943;48.738;9.320;2022-12-17T09:29:56;2.30;99.90
21565;DHT22;10943;48.738;9.320;2022-12-17T09:32:43;2.20;99.90
21565;DHT22;10943;48.738;9.320;2022-12-17T09:35:29;2.20;99.90
21565;DHT22;10943;48.738;9.320;2022-12-17T09:38:15;2.50;99.90
21565;DHT22;10943;48.738;9.320;2022-12-17T09:41:26;2.60;99.90
21565;DHT22;10943;48.738;9.320;2022-12-17T09:44:23;2.70;99.90
21565;DHT22;10943;48.738;9.320;2022-12-17T09:47:42;2.50;99.90
21565;DHT22;10943;48.738;9.320;2022-12-17T09:50:43;2.20;99.90
21565;DHT22;10943;48.738;9.320;2022-12-17T09:53:41;2.30;99.90
21565;DHT22;10943;48.738;9.320;2022-12-17T09:56:37;2.30;99.90
21565;DHT22;10943;48.738;9.320;2022-12-17T09:59:33;1.90;99.90
21565;DHT22;10943;48.738;9.320;2022-12-17T10:02:24;2.10;99.90
21565;DHT22;10943;48.738;9.320;2022-12-17T10:05:23;1.80;99.90
21565;DHT22;10943;48.738;9.320;2022-12-17T10:08:15;1.50;99.90
21565;DHT22;10943;48.738;9.320;2022-12-17T10:11:27;1.60;99.90
21565;DHT22;10943;48.738;9.320;2022-12-17T10:14:18;1.90;99.90
21565;DHT22;10943;48.738;9.320;2022-12-17T10:17:20;1.90;99.90
21565;DHT22;10943;48.738;9.320;2022-12-17T10:20:35;2.20;99.90
21565;DHT22;10943;48.738;9.320;2022-12-17T10:23:31;2.80;99.90
21565;DHT22;10943;48.738;9.320;2022-12-17T10:26:24;2.50;99.90
21565;DHT22;10943;48.738;9.320;2022-12-17T10:29:17;2.80;99.90
21565;DHT22;10943;48.738;9.320;2022-12-17T10:35:34;3.00;99.90
21565;DHT22;10943;48.738;9.320;2022-12-17T10:38:28;3.10;99.90
21565;DHT22;10943;48.738;9.320;2022-12-17T10:41:27;3.00;99.90
21565;DHT22;10943;48.738;9.320;2022-12-17T10:44:34;3.00;99.90
21565;DHT22;10943;48.738;9.320;2022-12-17T10:47:24;2.90;99.90
21565;DHT22;10943;48.738;9.320;2022-12-17T10:50:20;2.80;99.90
21565;DHT22;10943;48.738;9.320;2022-12-17T10:53:21;2.90;99.90
21565;DHT22;10943;48.738;9.320;2022-12-17T10:56:22;2.90;99.90
21565;DHT22;10943;48.738;9.320;2022-12-17T10:59:36;3.00;99.90
21565;DHT22;10943;48.738;9.320;2022-12-17T11:02:26;3.40;99.90
21565;DHT22;10943;48.738;9.320;2022-12-17T11:05:33;3.20;99.90
21565;DHT22;10943;48.738;9.320;2022-12-17T11:08:25;3.00;99.90
21565;DHT22;10943;48.738;9.320;2022-12-17T11:11:14;2.60;99.90
21565;DHT22;10943;48.738;9.320;2022-12-17T11:14:03;2.40;99.90
21565;DHT22;10943;48.738;9.320;2022-12-17T11:16:59;3.00;99.90
21565;DHT22;10943;48.738;9.320;2022-12-17T11:20:02;3.00;99.90
21565;DHT22;10943;48.738;9.320;2022-12-17T11:22:58;3.30;99.90
21565;DHT22;10943;48.738;9.320;2022-12-17T11:28:58;3.10;99.90
21565;DHT22;10943;48.738;9.320;2022-12-17T11:32:40;2.60;99.90
21565;DHT22;10943;48.738;9.320;2022-12-17T11:35:25;2.80;99.90
21565;DHT22;10943;48.738;9.320;2022-12-17T11:38:38;2.80;99.90
21565;DHT22;10943;48.738;9.320;2022-12-17T11:42:07;2.90;99.90
21565;DHT22;10943;48.738;9.320;2022-12-17T11:48:03;3.40;99.90
21565;DHT22;10943;48.738;9.320;2022-12-17T11:51:22;3.60;99.90
21565;DHT22;10943;48.738;9.320;2022-12-17T11:58:04;3.50;99.90
21565;DHT22;10943;48.738;9.320;2022-12-17T12:01:36;3.40;99.90
21565;DHT22;10943;48.738;9.320;2022-12-17T12:08:03;1.70;99.90
21565;DHT22;10943;48.738;9.320;2022-12-17T12:21:39;1.90;99.90
21565;DHT22;10943;48.738;9.320;2022-12-17T12:24:45;2.50;99.90
21565;DHT22;10943;48.738;9.320;2022-12-17T12:31:37;2.70;99.90
21565;DHT22;10943;48.738;9.320;2022-12-17T12:34:36;2.70;99.90
21565;DHT22;10943;48.738;9.320;2022-12-17T12:37:31;2.90;99.90
21565;DHT22;10943;48.738;9.320;2022-12-17T12:43:39;2.80;99.90
21565;DHT22;10943;48.738;9.320;2022-12-17T12:46:52;3.00;99.90
21565;DHT22;10943;48.738;9.320;2022-12-17T12:50:00;3.00;99.90
21565;DHT22;10943;48.738;9.320;2022-12-17T12:52:57;3.00;99.90
21565;DHT22;10943;48.738;9.320;2022-12-17T12:55:44;3.10;99.90
21565;DHT22;10943;48.738;9.320;2022-12-17T12:58:35;2.90;99.90
21565;DHT22;10943;48.738;9.320;2022-12-17T13:01:31;3.20;99.90
21565;DHT22;10943;48.738;9.320;2022-12-17T13:07:27;3.00;99.90
21565;DHT22;10943;48.738;9.320;2022-12-17T13:09:58;2.80;99.90
21565;DHT22;10943;48.738;9.320;2022-12-17T13:12:33;3.00;99.90
21565;DHT22;10943;48.738;9.320;2022-12-17T13:15:35;2.80;99.90
21565;DHT22;10943;48.738;9.320;2022-12-17T13:18:28;2.80;99.90
21565;DHT22;10943;48.738;9.320;2022-12-17T13:23:43;3.00;99.90
21565;DHT22;10943;48.738;9.320;2022-12-17T13:29:32;3.20;99.90
21565;DHT22;10943;48.738;9.320;2022-12-17T13:32:20;3.40;99.90
21565;DHT22;10943;48.738;9.320;2022-12-17T13:38:58;3.30;99.90
21565;DHT22;10943;48.738;9.320;2022-12-17T13:41:43;3.20;99.90
21565;DHT22;10943;48.738;9.320;2022-12-17T13:44:20;3.30;99.90
21565;DHT22;10943;48.738;9.320;2022-12-17T13:46:53;3.40;99.90
21565;DHT22;10943;48.738;9.320;2022-12-17T13:49:26;3.20;99.90
21565;DHT22;10943;48.738;9.320;2022-12-17T13:52:20;2.90;99.90
21565;DHT22;10943;48.738;9.320;2022-12-17T13:54:53;2.90;99.90
21565;DHT22;10943;48.738;9.320;2022-12-17T13:57:31;2.70;99.90
21565;DHT22;10943;48.738;9.320;2022-12-17T13:59:59;2.70;99.90
21565;DHT22;10943;48.738;9.320;2022-12-17T14:02:38;2.60;99.90
21565;DHT22;10943;48.738;9.320;2022-12-17T14:05:26;2.70;99.90
21565;DHT22;10943;48.738;9.320;2022-12-17T14:08:00;2.70;99.90
21565;DHT22;10943;48.738;9.320;2022-12-17T14:10:30;2.60;99.90
21565;DHT22;10943;48.738;9.320;2022-12-17T14:13:17;2.60;99.90
21565;DHT22;10943;48.738;9.320;2022-12-17T14:15:48;2.30;99.90
21565;DHT22;10943;48.738;9.320;2022-12-17T14:18:19;2.10;99.90
21565;DHT22;10943;48.738;9.320;2022-12-17T14:20:48;2.10;99.90
21565;DHT22;10943;48.738;9.320;2022-12-17T14:23:22;2.00;99.90
21565;DHT22;10943;48.738;9.320;2022-12-17T14:25:55;1.80;99.90
21565;DHT22;10943;48.738;9.320;2022-12-17T14:28:30;1.80;99.90
21565;DHT22;10943;48.738;9.320;2022-12-17T14:34:09;1.60;99.90
21565;DHT22;10943;48.738;9.320;2022-12-17T14:36:40;1.40;99.90
21565;DHT22;10943;48.738;9.320;2022-12-17T14:39:36;1.30;99.90
21565;DHT22;10943;48.738;9.320;2022-12-17T14:42:17;1.10;99.90
21565;DHT22;10943;48.738;9.320;2022-12-17T14:47:29;1.00;99.90
21565;DHT22;10943;48.738;9.320;2022-12-17T14:50:45;0.90;99.90
21565;DHT22;10943;48.738;9.320;2022-12-17T14:53:03;0.80;99.90
21565;DHT22;10943;48.738;9.320;2022-12-17T14:55:55;0.80;99.90
21565;DHT22;10943;48.738;9.320;2022-12-17T14:58:26;0.60;99.90
21565;DHT22;10943;48.738;9.320;2022-12-17T15:01:07;0.40;99.90
21565;DHT22;10943;48.738;9.320;2022-12-17T15:03:43;0.30;99.90
21565;DHT22;10943;48.738;9.320;2022-12-17T15:06:16;0.30;99.90
21565;DHT22;10943;48.738;9.320;2022-12-17T15:08:50;0.30;99.90
21565;DHT22;10943;48.738;9.320;2022-12-17T15:11:20;0.20;99.90
21565;DHT22;10943;48.738;9.320;2022-12-17T15:13:49;0.20;99.90
21565;DHT22;10943;48.738;9.320;2022-12-17T15:16:24;0.00;99.90
21565;DHT22;10943;48.738;9.320;2022-12-17T15:18:53;0.00;99.90
21565;DHT22;10943;48.738;9.320;2022-12-17T15:21:21;0.00;99.90
21565;DHT22;10943;48.738;9.320;2022-12-17T15:23:51;-0.10;99.90
21565;DHT22;10943;48.738;9.320;2022-12-17T15:26:22;-0.30;99.90
21565;DHT22;10943;48.738;9.320;2022-12-17T15:28:49;-0.40;99.90
21565;DHT22;10943;48.738;9.320;2022-12-17T15:31:17;-0.30;99.90
21565;DHT22;10943;48.738;9.320;2022-12-17T15:33:51;-0.60;99.90
21565;DHT22;10943;48.738;9.320;2022-12-17T15:36:18;-0.60;99.90
21565;DHT22;10943;48.738;9.320;2022-12-17T15:38:46;-0.60;99.90
21565;DHT22;10943;48.738;9.320;2022-12-17T15:41:14;-0.60;99.90
21565;DHT22;10943;48.738;9.320;2022-12-17T15:44:00;-0.80;99.90
21565;DHT22;10943;48.738;9.320;2022-12-17T15:46:27;-0.80;99.90
21565;DHT22;10943;48.738;9.320;2022-12-17T15:48:56;-0.70;99.90
21565;DHT22;10943;48.738;9.320;2022-12-17T15:51:23;-0.70;99.90
21565;DHT22;10943;48.738;9.320;2022-12-17T15:53:51;-0.90;99.90
21565;DHT22;10943;48.738;9.320;2022-12-17T15:56:23;-0.90;99.90
21565;DHT22;10943;48.738;9.320;2022-12-17T15:58:57;-1.00;99.90
21565;DHT22;10943;48.738;9.320;2022-12-17T16:01:25;-1.00;99.90
21565;DHT22;10943;48.738;9.320;2022-12-17T16:03:53;-1.10;99.90
21565;DHT22;10943;48.738;9.320;2022-12-17T16:06:20;-1.20;99.90
21565;DHT22;10943;48.738;9.320;2022-12-17T16:08:48;-1.30;99.90
21565;DHT22;10943;48.738;9.320;2022-12-17T16:11:15;-1.30;99.90
21565;DHT22;10943;48.738;9.320;2022-12-17T16:13:46;-1.50;99.90
21565;DHT22;10943;48.738;9.320;2022-12-17T16:16:21;-1.50;99.90
21565;DHT22;10943;48.738;9.320;2022-12-17T16:18:50;-1.40;99.90
21565;DHT22;10943;48.738;9.320;2022-12-17T16:21:18;-1.50;99.90
21565;DHT22;10943;48.738;9.320;2022-12-17T16:23:48;-1.50;99.90
21565;DHT22;10943;48.738;9.320;2022-12-17T16:26:18;-1.60;99.90
21565;DHT22;10943;48.738;9.320;2022-12-17T16:28:46;-1.70;99.90
21565;DHT22;10943;48.738;9.320;2022-12-17T16:31:14;-1.70;99.90
21565;DHT22;10943;48.738;9.320;2022-12-17T16:33:43;-1.70;99.90
21565;DHT22;10943;48.738;9.320;2022-12-17T16:36:15;-1.60;99.90
21565;DHT22;10943;48.738;9.320;2022-12-17T16:38:51;-1.60;99.90
21565;DHT22;10943;48.738;9.320;2022-12-17T16:41:21;-1.60;99.90
21565;DHT22;10943;48.738;9.320;2022-12-17T16:43:49;-1.70;99.90
21565;DHT22;10943;48.738;9.320;2022-12-17T16:46:27;-1.60;99.90
21565;DHT22;10943;48.738;9.320;2022-12-17T16:49:07;-1.60;99.90
21565;DHT22;10943;48.738;9.320;2022-12-17T16:51:39;-1.60;99.90
21565;DHT22;10943;48.738;9.320;2022-12-17T16:54:09;-1.50;99.90
21565;DHT22;10943;48.738;9.320;2022-12-17T16:56:43;-1.50;99.90
21565;DHT22;10943;48.738;9.320;2022-12-17T16:59:16;-1.60;99.90
21565;DHT22;10943;48.738;9.320;2022-12-17T17:01:46;-1.50;99.90
21565;DHT22;10943;48.738;9.320;2022-12-17T17:04:17;-1.40;99.90
21565;DHT22;10943;48.738;9.320;2022-12-17T17:06:50;-1.50;99.90
21565;DHT22;10943;48.738;9.320;2022-12-17T17:09:21;-1.40;99.90
21565;DHT22;10943;48.738;9.320;2022-12-17T17:11:50;-1.40;99.90
21565;DHT22;10943;48.738;9.320;2022-12-17T17:14:24;-1.30;99.90
21565;DHT22;10943;48.738;9.320;2022-12-17T17:16:53;-1.40;99.90
21565;DHT22;10943;48.738;9.320;2022-12-17T17:19:20;-1.60;99.90
21565;DHT22;10943;48.738;9.320;2022-12-17T17:21:52;-1.50;99.90
21565;DHT22;10943;48.738;9.320;2022-12-17T17:24:21;-1.40;99.90
21565;DHT22;10943;48.738;9.320;2022-12-17T17:26:52;-1.20;99.90
21565;DHT22;10943;48.738;9.320;2022-12-17T17:29:21;-1.30;99.90
21565;DHT22;10943;48.738;9.320;2022-12-17T17:31:49;-1.40;99.90
21565;DHT22;10943;48.738;9.320;2022-12-17T17:34:38;-1.10;99.90
21565;DHT22;10943;48.738;9.320;2022-12-17T17:37:06;-1.40;99.90
21565;DHT22;10943;48.738;9.320;2022-12-17T17:39:34;-1.60;99.90
21565;DHT22;10943;48.738;9.320;2022-12-17T17:42:02;-1.60;99.90
21565;DHT22;10943;48.738;9.320;2022-12-17T17:44:30;-1.50;99.90
21565;DHT22;10943;48.738;9.320;2022-12-17T17:46:58;-1.40;99.90
21565;DHT22;10943;48.738;9.320;2022-12-17T17:49:26;-1.20;99.90
21565;DHT22;10943;48.738;9.320;2022-12-17T17:51:54;-1.00;99.90
21565;DHT22;10943;48.738;9.320;2022-12-17T17:54:38;-1.00;99.90
21565;DHT22;10943;48.738;9.320;2022-12-17T17:57:07;-0.90;99.90
21565;DHT22;10943;48.738;9.320;2022-12-17T17:59:36;-0.80;99.90
21565;DHT22;10943;48.738;9.320;2022-12-17T18:02:06;-0.70;99.90
21565;DHT22;10943;48.738;9.320;2022-12-17T18:04:36;-0.60;99.90
21565;DHT22;10943;48.738;9.320;2022-12-17T18:07:04;-0.60;99.90
21565;DHT22;10943;48.738;9.320;2022-12-17T18:09:51;-0.40;99.90
21565;DHT22;10943;48.738;9.320;2022-12-17T18:12:20;-0.50;99.90
21565;DHT22;10943;48.738;9.320;2022-12-17T18:15:08;-0.70;99.90
21565;DHT22;10943;48.738;9.320;2022-12-17T18:17:46;-0.80;99.90
21565;DHT22;10943;48.738;9.320;2022-12-17T18:20:17;-0.80;99.90
21565;DHT22;10943;48.738;9.320;2022-12-17T18:22:45;-0.80;99.90
21565;DHT22;10943;48.738;9.320;2022-12-17T18:25:14;-1.00;99.90
21565;DHT22;10943;48.738;9.320;2022-12-17T18:27:44;-0.80;99.90
21565;DHT22;10943;48.738;9.320;2022-12-17T18:30:12;-0.90;99.90
21565;DHT22;10943;48.738;9.320;2022-12-17T18:32:40;-0.90;99.90
21565;DHT22;10943;48.738;9.320;2022-12-17T18:35:08;-0.80;99.90
21565;DHT22;10943;48.738;9.320;2022-12-17T18:37:39;-0.70;99.90
21565;DHT22;10943;48.738;9.320;2022-12-17T18:40:13;-0.80;99.90
21565;DHT22;10943;48.738;9.320;2022-12-17T18:42:41;-0.80;99.90
21565;DHT22;10943;48.738;9.320;2022-12-17T18:45:30;-0.70;99.90